createdAt,value
2019-05-13T00:01:43.480Z,100234.81
2019-05-13T00:04:09.452Z,100239.41
2019-05-13T00:06:49.937Z,100238.61
2019-05-13T00:09:05.344Z,100240.16
2019-05-13T00:11:31.543Z,100242.36
2019-05-13T00:13:57.482Z,100250.23
2019-05-13T00:16:23.561Z,100251.04
2019-05-13T00:18:49.635Z,100250.48
2019-05-13T00:21:15.646Z,100249.70
2019-05-13T00:23:41.573Z,100250.77
2019-05-13T00:26:07.577Z,100250.57
2019-05-13T00:28:34.449Z,100252.08
2019-05-13T00:31:03.405Z,100256.61
2019-05-13T00:33:29.368Z,100255.89
2019-05-13T00:35:55.310Z,100256.27
2019-05-13T00:38:21.344Z,100262.29
2019-05-13T00:40:47.266Z,100260.54
2019-05-13T00:43:14.294Z,100265.20
2019-05-13T00:45:40.419Z,100263.53
2019-05-13T00:48:06.387Z,100269.97
2019-05-13T00:50:33.508Z,100268.77
2019-05-13T00:52:59.800Z,100268.53
2019-05-13T00:55:25.747Z,100269.39
2019-05-13T00:57:53.974Z,100270.77
2019-05-13T01:00:19.700Z,100273.75
2019-05-13T01:02:45.654Z,100270.95
2019-05-13T01:05:11.801Z,100275.24
2019-05-13T01:07:37.707Z,100271.86
2019-05-13T01:10:04.372Z,100270.27
2019-05-13T01:12:30.261Z,100264.59
2019-05-13T01:14:56.200Z,100268.60
2019-05-13T01:17:23.531Z,100267.22
2019-05-13T01:19:49.767Z,100265.06
2019-05-13T01:22:15.668Z,100265.53
2019-05-13T01:24:43.818Z,100264.05
2019-05-13T01:27:09.405Z,100263.59
2019-05-13T01:29:35.391Z,100271.43
2019-05-13T01:32:04.492Z,100263.80
2019-05-13T01:34:30.399Z,100268.64
2019-05-13T01:36:56.388Z,100266.84
2019-05-13T01:39:24.254Z,100270.23
2019-05-13T01:41:50.299Z,100274.58
2019-05-13T01:44:16.199Z,100277.09
2019-05-13T01:46:43.733Z,100276.30
2019-05-13T01:49:10.126Z,100273.17
2019-05-13T01:51:36.178Z,100268.16
2019-05-13T01:54:04.113Z,100281.39
2019-05-13T01:56:30.021Z,100274.59
2019-05-13T01:58:55.985Z,100281.74
2019-05-13T02:01:24.037Z,100285.11
2019-05-13T02:03:49.779Z,100289.89
2019-05-13T02:06:15.865Z,100299.83
2019-05-13T02:08:43.861Z,100293.58
2019-05-13T02:11:09.734Z,100292.66
2019-05-13T02:13:35.697Z,100296.08
2019-05-13T02:16:03.892Z,100301.58
2019-05-13T02:18:29.418Z,100299.99
2019-05-13T02:20:56.020Z,100292.55
2019-05-13T02:23:23.839Z,100297.39
2019-05-13T02:25:50.140Z,100301.30
2019-05-13T02:28:17.197Z,100294.77
2019-05-13T02:30:45.526Z,100297.65
2019-05-13T02:33:13.260Z,100297.37
2019-05-13T02:35:39.048Z,100304.40
2019-05-13T02:38:19.865Z,100305.13
2019-05-13T02:40:32.854Z,100306.23
2019-05-13T02:43:02.633Z,100310.98
2019-05-13T02:45:27.222Z,100310.31
2019-05-13T02:47:53.124Z,100313.47
2019-05-13T02:50:19.068Z,100312.56
2019-05-13T02:52:44.964Z,100316.59
2019-05-13T02:55:12.365Z,100309.75
2019-05-13T02:57:38.628Z,100315.08
2019-05-13T03:00:08.258Z,100315.47
2019-05-13T03:02:34.191Z,100313.52
2019-05-13T03:05:03.185Z,100315.50
2019-05-13T03:07:28.011Z,100313.22
2019-05-13T03:09:54.011Z,100321.60
2019-05-13T03:12:22.799Z,100318.02
2019-05-13T03:14:48.677Z,100319.22
2019-05-13T03:17:14.688Z,100317.84
2019-05-13T03:19:43.221Z,100325.45
2019-05-13T03:22:08.716Z,100323.73
2019-05-13T03:24:34.616Z,100327.73
2019-05-13T03:27:02.567Z,100327.45
2019-05-13T03:29:28.407Z,100329.20
2019-05-13T03:31:56.347Z,100334.88
2019-05-13T03:34:26.914Z,100328.92
2019-05-13T03:36:56.755Z,100328.64
2019-05-13T03:39:18.817Z,100145.49
2019-05-13T03:41:48.554Z,100328.83
2019-05-13T03:44:17.158Z,100331.45
2019-05-13T03:46:46.094Z,100339.02
2019-05-13T03:49:13.689Z,100336.26
2019-05-13T03:51:42.910Z,100343.98
2019-05-13T03:54:08.340Z,100340.19
2019-05-13T03:56:34.683Z,100346.75
2019-05-13T03:59:02.724Z,100348.60
2019-05-13T04:01:32.273Z,100349.45
2019-05-13T04:03:56.895Z,100352.45
2019-05-13T04:06:23.660Z,100357.82
2019-05-13T04:08:53.587Z,100356.05
2019-05-13T04:11:17.980Z,100365.30
2019-05-13T04:13:44.182Z,100360.56
2019-05-13T04:16:12.705Z,100370.70
2019-05-13T04:18:38.450Z,100368.73
2019-05-13T04:21:04.561Z,100365.72
2019-05-13T04:23:32.282Z,100367.17
2019-05-13T04:25:58.648Z,100372.00
2019-05-13T04:28:24.867Z,100374.93
2019-05-13T04:30:52.581Z,100378.83
2019-05-13T04:33:18.856Z,100372.09
2019-05-13T04:35:45.024Z,100377.06
2019-05-13T04:38:13.103Z,100368.16
2019-05-13T04:40:42.186Z,100371.90
2019-05-13T04:43:07.215Z,100366.78
2019-05-13T04:45:33.300Z,100368.38
2019-05-13T04:47:59.357Z,100367.07
2019-05-13T04:50:25.360Z,100376.53
2019-05-13T04:52:52.490Z,100372.86
2019-05-13T04:55:18.803Z,100372.86
2019-05-13T04:57:44.867Z,100374.97
2019-05-13T05:00:12.881Z,100376.61
2019-05-13T05:03:03.581Z,100380.17
2019-05-13T05:05:52.727Z,100389.88
2019-05-13T05:08:52.318Z,100384.00
2019-05-13T05:11:38.678Z,100386.84
2019-05-13T05:14:26.403Z,100393.77
2019-05-13T05:17:15.691Z,100391.17
2019-05-13T05:20:11.979Z,100399.03
2019-05-13T05:23:12.837Z,100406.16
2019-05-13T05:25:45.518Z,100405.81
2019-05-13T05:28:41.466Z,100396.55
2019-05-13T05:31:23.253Z,100404.47
2019-05-13T05:34:11.564Z,100396.23
2019-05-13T05:36:57.989Z,100404.36
2019-05-13T05:39:25.344Z,100403.72
2019-05-13T05:41:56.096Z,100402.22
2019-05-13T05:44:25.335Z,100402.22
2019-05-13T05:46:53.698Z,100407.31
2019-05-13T05:49:22.917Z,100406.98
2019-05-13T05:51:51.505Z,100399.09
2019-05-13T05:54:19.051Z,100401.77
2019-05-13T05:56:45.967Z,100398.95
2019-05-13T05:59:12.604Z,100406.97
2019-05-13T06:01:42.852Z,100403.09
2019-05-13T06:04:08.961Z,100409.43
2019-05-13T06:06:35.816Z,100409.84
2019-05-13T06:09:02.802Z,100409.87
2019-05-13T06:11:31.268Z,100405.16
2019-05-13T06:13:57.719Z,100406.80
2019-05-13T06:16:23.869Z,100405.98
2019-05-13T06:18:52.286Z,100403.48
2019-05-13T06:21:17.929Z,100405.53
2019-05-13T06:23:43.985Z,100302.88
2019-05-13T06:26:12.610Z,100404.78
2019-05-13T06:28:38.094Z,100410.28
2019-05-13T06:31:04.267Z,100403.61
2019-05-13T06:33:31.664Z,100399.66
2019-05-13T06:35:57.879Z,100403.05
2019-05-13T06:38:23.779Z,100398.34
2019-05-13T06:41:02.498Z,100400.48
2019-05-13T06:43:17.819Z,100399.56
2019-05-13T06:45:43.833Z,100399.84
2019-05-13T06:48:11.707Z,100403.09
2019-05-13T06:50:37.952Z,100405.69
2019-05-13T06:53:04.301Z,100380.11
2019-05-13T06:55:31.560Z,100402.55
2019-05-13T06:57:57.786Z,100400.69
2019-05-13T07:00:23.761Z,100400.94
2019-05-13T07:02:51.783Z,100396.33
2019-05-13T07:05:17.917Z,100396.81
2019-05-13T07:07:44.417Z,100400.08
2019-05-13T07:10:12.732Z,100396.00
2019-05-13T07:12:38.378Z,100395.16
2019-05-13T07:15:05.852Z,100405.45
2019-05-13T07:17:32.413Z,100399.34
2019-05-13T07:19:58.611Z,100401.55
2019-05-13T07:22:24.679Z,100402.25
2019-05-13T07:24:51.932Z,100399.84
2019-05-13T07:27:18.066Z,100396.90
2019-05-13T07:29:45.876Z,100391.88
2019-05-13T07:32:12.103Z,100407.95
2019-05-13T07:34:43.996Z,100392.36
2019-05-13T07:37:11.204Z,100387.67
2019-05-13T07:39:37.365Z,100387.27
2019-05-13T07:42:05.856Z,100384.32
2019-05-13T07:44:32.404Z,100384.32
2019-05-13T07:46:58.825Z,100383.19
2019-05-13T07:49:24.731Z,100383.84
2019-05-13T07:51:52.098Z,100381.87
2019-05-13T07:54:18.187Z,100385.41
2019-05-13T07:56:44.208Z,100172.74
2019-05-13T07:59:12.336Z,100378.93
2019-05-13T08:01:38.129Z,100240.22
2019-05-13T08:04:04.559Z,100375.80
2019-05-13T08:06:32.297Z,100376.69
2019-05-13T08:08:58.567Z,100369.17
2019-05-13T08:11:24.502Z,100371.16
2019-05-13T08:13:51.765Z,100370.03
2019-05-13T08:16:17.996Z,100368.94
2019-05-13T08:18:44.037Z,100377.66
2019-05-13T08:21:12.372Z,100371.36
2019-05-13T08:23:38.173Z,100371.45
2019-05-13T08:26:04.225Z,100374.95
2019-05-13T08:28:32.373Z,100372.56
2019-05-13T08:30:58.126Z,100374.72
2019-05-13T08:33:25.249Z,100371.30
2019-05-13T08:35:53.881Z,100378.31
2019-05-13T08:38:19.415Z,100369.16
2019-05-13T08:40:45.416Z,100367.86
2019-05-13T08:43:12.161Z,100369.30
2019-05-13T08:45:38.149Z,100368.61
2019-05-13T08:48:04.186Z,100370.62
2019-05-13T08:50:32.360Z,100370.50
2019-05-13T08:52:58.135Z,100372.66
2019-05-13T08:55:24.219Z,100367.87
2019-05-13T08:57:53.202Z,100368.28
2019-05-13T09:00:38.600Z,100368.28
2019-05-13T09:03:06.391Z,100357.94
2019-05-13T09:05:32.713Z,100364.66
2019-05-13T09:08:01.284Z,100364.66
2019-05-13T09:10:27.370Z,100358.34
2019-05-13T09:12:53.336Z,100357.55
2019-05-13T09:15:19.319Z,100352.05
2019-05-13T09:17:45.352Z,100355.28
2019-05-13T09:20:11.730Z,100355.31
2019-05-13T09:22:37.740Z,100355.76
2019-05-13T09:25:04.018Z,100346.88
2019-05-13T09:27:31.871Z,100350.06
2019-05-13T09:29:57.897Z,100351.08
2019-05-13T09:32:23.902Z,100346.19
2019-05-13T09:34:52.427Z,100348.58
2019-05-13T09:37:17.894Z,100357.03
2019-05-13T09:39:43.834Z,100359.37
2019-05-13T09:42:12.430Z,100349.03
2019-05-13T09:44:37.740Z,100360.07
2019-05-13T09:47:03.833Z,100359.56
2019-05-13T09:49:32.504Z,100344.52
2019-05-13T09:51:57.860Z,100351.20
2019-05-13T09:54:23.908Z,100352.22
2019-05-13T09:56:51.871Z,100352.22
2019-05-13T09:59:18.466Z,100345.36
2019-05-13T10:01:44.408Z,100349.61
2019-05-13T10:04:11.901Z,100335.83
2019-05-13T10:06:38.057Z,100348.63
2019-05-13T10:09:05.608Z,100343.97
2019-05-13T10:11:31.510Z,100340.00
2019-05-13T10:13:57.445Z,100341.27
2019-05-13T10:16:23.452Z,100335.17
2019-05-13T10:18:52.203Z,100340.99
2019-05-13T10:21:18.208Z,100333.66
2019-05-13T10:23:45.415Z,100337.74
2019-05-13T10:26:14.402Z,100330.81
2019-05-13T10:28:42.563Z,100327.96
2019-05-13T10:31:11.769Z,100335.42
2019-05-13T10:33:37.162Z,100335.42
2019-05-13T10:36:03.963Z,100329.92
2019-05-13T10:38:32.366Z,100325.02
2019-05-13T10:40:59.076Z,100256.05
2019-05-13T10:43:31.419Z,100322.95
2019-05-13T10:45:53.507Z,100325.24
2019-05-13T10:48:22.049Z,100329.33
2019-05-13T10:50:48.049Z,100328.14
2019-05-13T10:53:14.142Z,100314.35
2019-05-13T10:55:42.286Z,100314.62
2019-05-13T10:58:08.326Z,100325.25
2019-05-13T11:00:42.307Z,100312.36
2019-05-13T11:03:11.778Z,100312.90
2019-05-13T11:05:44.448Z,100312.90
2019-05-13T11:08:09.016Z,100315.33
2019-05-13T11:10:35.173Z,100303.48
2019-05-13T11:13:01.640Z,100317.05
2019-05-13T11:15:32.854Z,100308.02
2019-05-13T11:17:56.901Z,100308.02
2019-05-13T11:20:25.640Z,100311.98
2019-05-13T11:22:52.239Z,100307.67
2019-05-13T11:25:18.185Z,100303.88
2019-05-13T11:27:44.431Z,100300.28
2019-05-13T11:30:10.815Z,100304.91
2019-05-13T11:32:36.807Z,100307.75
2019-05-13T11:35:05.019Z,100307.75
2019-05-13T11:37:32.073Z,100295.85
2019-05-13T11:39:58.159Z,100295.86
2019-05-13T11:42:24.113Z,100295.72
2019-05-13T11:44:52.796Z,100297.19
2019-05-13T11:47:18.479Z,100297.19
2019-05-13T11:49:44.440Z,100283.31
2019-05-13T11:52:11.602Z,100286.22
2019-05-13T11:54:38.138Z,100293.89
2019-05-13T11:57:06.370Z,100286.48
2019-05-13T11:59:35.509Z,100274.11
2019-05-13T12:02:04.373Z,100266.14
2019-05-13T12:04:29.409Z,100275.81
2019-05-13T12:06:55.369Z,100263.47
2019-05-13T12:09:22.269Z,100267.27
2019-05-13T12:11:48.793Z,100258.28
2019-05-13T12:16:42.755Z,100258.22
2019-05-13T12:19:09.086Z,100257.37
2019-05-13T12:21:41.934Z,100257.18
2019-05-13T12:24:10.373Z,100257.00
2019-05-13T12:26:33.298Z,100245.69
2019-05-13T12:29:02.526Z,100252.22
2019-05-13T12:31:28.056Z,100251.59
2019-05-13T12:33:54.141Z,100244.08
2019-05-13T12:36:23.609Z,100234.56
2019-05-13T12:38:53.507Z,100237.02
2019-05-13T12:41:22.760Z,100226.56
2019-05-13T12:43:47.412Z,100216.17
2019-05-13T12:46:13.625Z,100224.95
2019-05-13T12:48:39.980Z,100235.81
2019-05-13T12:51:07.234Z,100236.46
2019-05-13T12:53:33.157Z,100237.68
2019-05-13T12:56:02.799Z,100231.67
2019-05-13T12:58:27.394Z,100230.70
2019-05-13T13:00:53.793Z,100222.98
2019-05-13T13:03:23.193Z,100221.20
2019-05-13T13:05:48.155Z,100219.57
2019-05-13T13:08:28.913Z,100210.84
2019-05-13T13:10:42.604Z,100221.55
2019-05-13T13:13:08.559Z,100214.02
2019-05-13T13:15:41.124Z,100211.38
2019-05-13T13:18:05.663Z,100208.48
2019-05-13T13:20:33.539Z,100206.22
2019-05-13T13:23:03.409Z,100196.84
2019-05-13T13:25:27.618Z,100198.19
2019-05-13T13:28:10.492Z,100191.36
2019-05-13T13:30:21.828Z,100201.36
2019-05-13T13:32:48.060Z,100194.27
2019-05-13T13:35:14.965Z,100192.73
2019-05-13T13:37:45.891Z,100184.13
2019-05-13T13:40:10.167Z,100186.68
2019-05-13T13:42:36.201Z,100176.25
2019-05-13T13:45:06.247Z,100173.34
2019-05-13T13:47:33.205Z,100172.32
2019-05-13T13:49:58.622Z,100178.53
2019-05-13T13:52:24.688Z,100171.89
2019-05-13T13:55:02.180Z,100171.67
2019-05-13T13:57:18.779Z,100170.48
2019-05-13T14:00:19.176Z,100174.23
2019-05-13T14:02:13.763Z,100164.36
2019-05-13T14:04:42.226Z,100164.55
2019-05-13T14:06:31.862Z,100265.23
2019-05-13T14:07:22.275Z,100160.82
2019-05-13T14:09:35.665Z,100160.91
2019-05-13T14:12:02.139Z,100163.77
2019-05-13T14:14:28.274Z,100160.94
2019-05-13T14:16:54.252Z,100159.99
2019-05-13T14:19:21.845Z,100153.66
2019-05-13T14:21:47.942Z,100154.98
2019-05-13T14:24:13.942Z,100145.46
2019-05-13T14:26:43.190Z,100140.78
2019-05-13T14:29:07.914Z,100142.00
2019-05-13T14:31:33.938Z,100142.37
2019-05-13T14:34:00.149Z,100136.27
2019-05-13T14:36:26.077Z,100140.95
2019-05-13T14:38:52.938Z,100128.22
2019-05-13T14:41:19.077Z,100128.67
2019-05-13T14:43:45.331Z,100120.55
2019-05-13T14:46:12.587Z,100120.23
2019-05-13T14:48:38.799Z,100118.78
2019-05-13T14:51:04.703Z,100117.92
2019-05-13T14:53:32.211Z,100122.42
2019-05-13T14:55:58.347Z,100126.95
2019-05-13T14:58:24.288Z,100118.57
2019-05-13T15:01:10.338Z,100120.08
2019-05-13T15:03:18.248Z,100116.38
2019-05-13T15:05:46.511Z,100122.22
2019-05-13T15:08:23.252Z,100109.31
2019-05-13T15:10:47.491Z,100102.92
2019-05-13T15:13:13.418Z,100099.28
2019-05-13T15:15:39.356Z,100100.98
2019-05-13T15:18:05.301Z,100104.55
2019-05-13T15:20:33.066Z,100107.41
2019-05-13T15:22:59.182Z,100118.06
2019-05-13T15:25:25.093Z,100110.33
2019-05-13T15:27:52.812Z,100114.28
2019-05-13T15:30:21.622Z,100112.28
2019-05-13T15:32:46.789Z,100114.64
2019-05-13T15:35:13.473Z,100118.22
2019-05-13T15:37:41.788Z,100113.23
2019-05-13T15:40:07.507Z,100123.78
2019-05-13T15:42:33.416Z,100117.41
2019-05-13T15:45:01.869Z,100118.04
2019-05-13T15:47:27.771Z,100116.38
2019-05-13T15:49:54.710Z,100115.36
2019-05-13T15:52:22.656Z,100114.54
2019-05-13T15:54:48.917Z,100111.69
2019-05-13T15:57:15.042Z,100113.00
2019-05-13T15:59:41.646Z,100117.41
2019-05-13T16:02:07.691Z,100113.27
2019-05-13T16:04:47.892Z,100109.05
2019-05-13T16:07:01.861Z,100106.25
2019-05-13T16:09:31.259Z,100098.62
2019-05-13T16:11:56.812Z,100103.58
2019-05-13T16:14:22.719Z,100101.98
2019-05-13T16:16:49.080Z,100102.02
2019-05-13T16:19:15.103Z,100104.85
2019-05-13T16:21:42.060Z,100106.66
2019-05-13T16:24:08.396Z,100103.55
2019-05-13T16:26:34.492Z,100115.30
2019-05-13T16:29:02.149Z,100106.11
2019-05-13T16:31:28.429Z,100106.84
2019-05-13T16:33:54.343Z,100107.81
2019-05-13T16:36:22.106Z,100100.81
2019-05-13T16:38:48.149Z,100104.47
2019-05-13T16:41:15.458Z,100100.80
2019-05-13T16:43:42.579Z,100103.60
2019-05-13T16:46:08.835Z,100108.55
2019-05-13T16:48:34.915Z,99930.57
2019-05-13T16:51:00.957Z,100107.28
2019-05-13T16:53:26.903Z,100114.87
2019-05-13T16:55:52.941Z,100114.87
2019-05-13T16:58:24.514Z,100104.70
2019-05-13T17:00:47.065Z,100104.70
2019-05-13T17:03:12.979Z,100101.98
2019-05-13T17:05:39.096Z,100101.73
2019-05-13T17:08:05.063Z,100097.05
2019-05-13T17:10:31.546Z,100097.05
2019-05-13T17:12:57.625Z,100101.16
2019-05-13T17:15:26.421Z,100098.59
2019-05-13T17:17:51.680Z,100104.71
2019-05-13T17:20:17.798Z,100097.86
2019-05-13T17:22:43.825Z,100102.06
2019-05-13T17:25:12.669Z,100102.06
2019-05-13T17:27:38.315Z,100103.25
2019-05-13T17:30:04.864Z,100100.30
2019-05-13T17:32:30.886Z,100102.06
2019-05-13T17:34:56.837Z,100100.71
2019-05-13T17:37:22.735Z,100096.95
2019-05-13T17:39:48.789Z,100098.54
2019-05-13T17:42:14.712Z,100090.36
2019-05-13T17:44:45.997Z,100090.36
2019-05-13T17:47:11.144Z,100098.18
2019-05-13T17:49:37.802Z,100092.35
2019-05-13T17:52:04.016Z,100091.41
2019-05-13T17:54:31.855Z,100092.73
2019-05-13T17:56:57.781Z,100081.70
2019-05-13T17:59:23.739Z,100084.95
2019-05-13T18:01:51.691Z,100092.52
2019-05-13T18:04:19.002Z,100092.88
2019-05-13T18:06:45.033Z,100092.88
2019-05-13T18:09:12.290Z,100090.67
2019-05-13T18:11:38.417Z,100099.09
2019-05-13T18:14:04.322Z,100114.33
2019-05-13T18:16:32.363Z,100098.37
2019-05-13T18:18:58.555Z,100094.27
2019-05-13T18:21:24.509Z,100094.98
2019-05-13T18:23:52.205Z,100094.59
2019-05-13T18:26:18.282Z,100093.84
2019-05-13T18:28:44.496Z,100092.84
2019-05-13T18:31:12.193Z,100093.36
2019-05-13T18:33:38.322Z,100093.36
2019-05-13T18:36:04.340Z,100084.19
2019-05-13T18:38:31.303Z,100084.61
2019-05-13T18:40:57.704Z,100081.73
2019-05-13T18:43:23.883Z,100088.30
2019-05-13T18:45:51.906Z,100089.13
2019-05-13T18:48:17.797Z,100082.84
2019-05-13T18:50:43.947Z,100089.26
2019-05-13T18:53:09.852Z,100089.02
2019-05-13T18:55:35.985Z,100085.36
2019-05-13T18:58:02.129Z,100089.23
2019-05-13T19:00:28.267Z,100092.38
2019-05-13T19:02:54.365Z,100086.25
2019-05-13T19:05:21.219Z,100083.95
2019-05-13T19:07:47.497Z,100092.06
2019-05-13T19:10:13.741Z,100087.02
2019-05-13T19:12:41.844Z,100095.13
2019-05-13T19:15:08.043Z,100094.45
2019-05-13T19:17:36.260Z,100101.09
2019-05-13T19:20:02.382Z,100095.06
2019-05-13T19:22:28.544Z,100099.13
2019-05-13T19:24:54.551Z,100102.39
2019-05-13T19:27:21.558Z,100109.13
2019-05-13T19:29:47.875Z,100106.80
2019-05-13T19:32:13.802Z,100118.67
2019-05-13T19:34:42.364Z,100104.85
2019-05-13T19:37:11.551Z,100111.95
2019-05-13T19:39:37.643Z,100112.30
2019-05-13T19:42:03.686Z,100105.88
2019-05-13T19:44:31.532Z,100110.62
2019-05-13T19:46:57.487Z,100109.89
2019-05-13T19:49:32.527Z,100101.31
2019-05-13T19:51:52.139Z,100106.05
2019-05-13T19:54:18.392Z,100105.72
2019-05-13T19:56:44.362Z,100086.54
2019-05-13T19:59:12.420Z,100112.78
2019-05-13T20:01:38.356Z,100111.26
2019-05-13T20:04:04.289Z,100109.88
2019-05-13T20:06:31.960Z,100125.97
2019-05-13T20:08:58.123Z,100114.98
2019-05-13T20:11:24.175Z,100116.66
2019-05-13T20:13:52.071Z,100120.31
2019-05-13T20:16:18.187Z,100112.84
2019-05-13T20:18:44.299Z,100119.88
2019-05-13T20:21:12.889Z,100111.41
2019-05-13T20:23:38.100Z,100111.19
2019-05-13T20:26:04.226Z,100112.06
2019-05-13T20:28:31.690Z,100116.25
2019-05-13T20:30:58.416Z,100114.59
2019-05-13T20:33:24.397Z,100121.77
2019-05-13T20:35:50.421Z,100119.72
2019-05-13T20:38:16.403Z,100118.92
2019-05-13T20:40:42.455Z,100124.66
2019-05-13T20:43:08.526Z,100119.41
2019-05-13T20:45:34.592Z,100117.50
2019-05-13T20:48:01.478Z,100122.30
2019-05-13T20:50:27.579Z,100089.87
2019-05-13T20:52:53.513Z,100160.22
2019-05-13T20:55:21.927Z,100119.08
2019-05-13T20:57:47.430Z,100124.28
2019-05-13T21:00:13.444Z,100122.84
2019-05-13T21:02:41.699Z,100119.41
2019-05-13T21:05:09.133Z,100125.72
2019-05-13T21:07:35.605Z,100119.88
2019-05-13T21:10:01.622Z,100123.34
2019-05-13T21:12:27.568Z,100057.69
2019-05-13T21:14:53.574Z,100113.06
2019-05-13T21:17:21.411Z,100111.63
2019-05-13T21:19:47.533Z,100110.45
2019-05-13T21:22:14.720Z,100108.52
2019-05-13T21:24:41.300Z,100111.63
2019-05-13T21:27:07.646Z,100115.31
2019-05-13T21:29:33.608Z,100112.73
2019-05-13T21:32:01.113Z,100109.40
2019-05-13T21:34:27.104Z,100069.08
2019-05-13T21:36:53.050Z,100106.49
2019-05-13T21:39:21.225Z,100109.26
2019-05-13T21:41:47.098Z,100106.06
2019-05-13T21:44:13.043Z,100102.48
2019-05-13T21:46:40.989Z,100101.43
2019-05-13T21:49:06.842Z,100100.80
2019-05-13T21:51:32.764Z,100094.38
2019-05-13T21:54:01.197Z,100096.53
2019-05-13T21:56:27.385Z,100091.05
2019-05-13T21:58:53.373Z,100095.70
2019-05-13T22:01:23.112Z,100094.88
2019-05-13T22:03:47.774Z,100094.16
2019-05-13T22:06:13.702Z,100092.23
2019-05-13T22:08:41.233Z,100086.41
2019-05-13T22:11:07.566Z,100094.64
2019-05-13T22:13:33.911Z,100086.65
2019-05-13T22:16:01.672Z,100086.77
2019-05-13T22:18:27.663Z,100083.44
2019-05-13T22:20:53.907Z,100081.52
2019-05-13T22:23:20.015Z,100083.05
2019-05-13T22:25:46.080Z,100079.27
2019-05-13T22:28:13.433Z,100082.36
2019-05-13T22:30:41.262Z,100082.58
2019-05-13T22:33:07.327Z,100084.63
2019-05-13T22:35:33.259Z,100080.70
2019-05-13T22:38:01.595Z,100080.09
2019-05-13T22:40:27.134Z,100077.68
2019-05-13T22:42:56.850Z,100080.32
2019-05-13T22:45:22.004Z,100081.75
2019-05-13T22:47:48.035Z,100091.30
2019-05-13T22:50:14.177Z,100087.62
2019-05-13T22:52:41.941Z,100060.31
2019-05-13T22:55:08.388Z,100097.02
2019-05-13T22:57:34.327Z,100105.70
2019-05-13T23:00:00.404Z,100103.08
2019-05-13T23:02:26.582Z,100107.72
2019-05-13T23:04:52.477Z,100103.31
2019-05-13T23:07:18.427Z,100104.99
2019-05-13T23:09:44.390Z,100101.77
2019-05-13T23:12:12.296Z,100103.69
2019-05-13T23:14:38.158Z,100100.93
2019-05-13T23:17:04.170Z,100102.69
2019-05-13T23:19:32.316Z,100096.86
2019-05-13T23:21:58.017Z,100094.48
2019-05-13T23:24:24.077Z,100092.80
2019-05-13T23:26:51.575Z,100087.63
2019-05-13T23:29:17.849Z,100085.72
2019-05-13T23:31:43.844Z,100088.76
2019-05-13T23:34:12.056Z,100088.80
2019-05-13T23:36:37.796Z,100080.77
2019-05-13T23:39:05.364Z,100072.67
2019-05-13T23:41:31.639Z,100069.73
2019-05-13T23:43:57.576Z,100071.91
2019-05-13T23:46:23.477Z,100074.37
2019-05-13T23:48:49.424Z,100068.59
2019-05-13T23:51:15.340Z,100075.00
2019-05-13T23:53:41.725Z,100071.75
2019-05-13T23:56:07.773Z,100076.84
2019-05-13T23:58:33.842Z,100068.61
